PWSweather.com
Personal Weather Stations
Station Observations
PHMDWX
Perry Hall, MD 21236

Perry Hall, MD 21236

Lat: 39.418318, Lon: -76.490039

Elevation: 305

Station Type: Davis Vantage Pro

www.phmdwx.net

High Low Average
Temperature 76.8°F24.9°F 63.4°F17.4°F 69.1°F20.6°F
Dew Point 71.9°F22.2°F 63.1°F17.3°F 67.3°F19.6°F
Winds 8.1 mph -13.0 mph - Calm Calm 2.0 mph 3.2 mph
Wind Gusts 17.3 mph27.8 mph -- 4.2 mph6.8 mph
Humidity 99% 77% 95%
Pressure 29.81 in1009.50 in 29.47 in998.00 in -
Precipitation 2.19 in55.60 in - -
Hour Temp Dew Point Humidity Winds Wind Gusts Pressure Precip Precip Rate Daily Precip Total
12:00 AM 66.0°F18.9°C 65.7°F18.7°C 99% 4.6 mph W7.4 kmh W 8.1 mph13.0 kmh 29.52 in999.7 mb - 0.02 in0.5 mm 0.02 in0.5 mm
12:30 AM 66.1°F18.9°C 65.8°F18.8°C 99% 3.5 mph W5.6 kmh W 6.9 mph11.1 kmh 29.49 in998.6 mb - 0.06 in1.5 mm 0.06 in1.5 mm
01:00 AM 65.3°F18.5°C 65.0°F18.3°C 99% 6.9 mph SW11.1 kmh SW 17.3 mph27.8 kmh 29.50 in999.0 mb - 0.16 in4.1 mm 0.22 in5.6 mm
01:30 AM 66.3°F19.1°C 66.0°F18.9°C 99% 2.3 mph W3.7 kmh W 5.8 mph9.3 kmh 29.47 in998.0 mb - 0.14 in3.6 mm 0.36 in9.1 mm
02:00 AM 65.8°F18.8°C 65.5°F18.6°C 99% 8.1 mph W13.0 kmh W 11.5 mph18.5 kmh 29.49 in998.6 mb - 0.00 in0.0 mm 0.36 in9.1 mm
02:30 AM 64.4°F18.0°C 64.1°F17.8°C 99% 4.6 mph WSW7.4 kmh WSW 6.9 mph11.1 kmh 29.51 in999.3 mb - 0.00 in0.0 mm 0.36 in9.1 mm
03:00 AM 64.0°F17.8°C 63.7°F17.6°C 99% 3.5 mph W5.6 kmh W 4.6 mph7.4 kmh 29.52 in999.7 mb - 0.00 in0.0 mm 0.36 in9.1 mm
03:30 AM 64.0°F17.8°C 63.7°F17.6°C 99% Calm Calm 2.3 mph3.7 kmh 29.55 in1000.7 mb - 0.00 in0.0 mm 0.36 in9.1 mm
04:00 AM 64.7°F18.2°C 64.4°F18.0°C 99% 2.3 mph SW3.7 kmh SW 4.6 mph7.4 kmh 29.58 in1001.7 mb - 0.00 in0.0 mm 0.36 in9.1 mm
04:30 AM 64.7°F18.2°C 64.4°F18.0°C 99% 3.5 mph W5.6 kmh W 3.5 mph5.6 kmh 29.60 in1002.4 mb - 0.00 in0.0 mm 0.36 in9.1 mm
05:00 AM 64.3°F17.9°C 64.0°F17.8°C 99% 2.3 mph SW3.7 kmh SW 8.1 mph13.0 kmh 29.61 in1002.7 mb - 0.00 in0.0 mm 0.36 in9.1 mm
05:30 AM 64.0°F17.8°C 63.7°F17.6°C 99% Calm Calm -- 29.63 in1003.4 mb - 0.00 in0.0 mm 0.36 in9.1 mm
06:00 AM 63.9°F17.7°C 63.6°F17.6°C 99% 2.3 mph S3.7 kmh S 5.8 mph9.3 kmh 29.65 in1004.1 mb - 0.00 in0.0 mm 0.36 in9.1 mm
06:30 AM 63.7°F17.6°C 63.4°F17.4°C 99% Calm Calm -- 29.67 in1004.7 mb - 0.00 in0.0 mm 0.36 in9.1 mm
07:00 AM 63.4°F17.4°C 63.1°F17.3°C 99% Calm Calm -- 29.68 in1005.1 mb - 0.00 in0.0 mm 0.36 in9.1 mm
07:30 AM 63.7°F17.6°C 63.4°F17.4°C 99% Calm Calm -- 29.70 in1005.8 mb - 0.00 in0.0 mm 0.36 in9.1 mm
08:00 AM 64.3°F17.9°C 64.0°F17.8°C 99% Calm Calm -- 29.71 in1006.1 mb - 0.00 in0.0 mm 0.36 in9.1 mm
08:30 AM 65.7°F18.7°C 65.4°F18.6°C 99% Calm Calm 2.3 mph3.7 kmh 29.73 in1006.8 mb - 0.00 in0.0 mm 0.36 in9.1 mm
09:00 AM 66.8°F19.3°C 65.9°F18.8°C 97% 2.3 mph SSE3.7 kmh SSE 3.5 mph5.6 kmh 29.75 in1007.5 mb - 0.00 in0.0 mm 0.36 in9.1 mm
09:30 AM 69.3°F20.7°C 66.2°F19.0°C 90% 1.2 mph SE1.9 kmh SE 2.3 mph3.7 kmh 29.76 in1007.8 mb - 0.00 in0.0 mm 0.36 in9.1 mm
10:00 AM 70.3°F21.3°C 65.6°F18.7°C 85% 2.3 mph SSE3.7 kmh SSE 4.6 mph7.4 kmh 29.77 in1008.1 mb - 0.00 in0.0 mm 0.36 in9.1 mm
10:30 AM 71.6°F22.0°C 65.5°F18.6°C 81% 1.2 mph S1.9 kmh S 5.8 mph9.3 kmh 29.77 in1008.1 mb - 0.00 in0.0 mm 0.36 in9.1 mm
11:00 AM 73.2°F22.9°C 66.7°F19.3°C 80% 2.3 mph E3.7 kmh E 5.8 mph9.3 kmh 29.77 in1008.1 mb - 0.00 in0.0 mm 0.36 in9.1 mm
11:30 AM 75.4°F24.1°C 67.6°F19.8°C 77% 2.3 mph E3.7 kmh E 5.8 mph9.3 kmh 29.77 in1008.1 mb - 0.00 in0.0 mm 0.36 in9.1 mm
12:00 PM 75.8°F24.3°C 68.4°F20.2°C 78% 1.2 mph E1.9 kmh E 4.6 mph7.4 kmh 29.78 in1008.5 mb - 0.00 in0.0 mm 0.36 in9.1 mm
12:30 PM 76.1°F24.5°C 69.1°F20.6°C 79% 1.2 mph ENE1.9 kmh ENE 5.8 mph9.3 kmh 29.77 in1008.1 mb - 0.00 in0.0 mm 0.36 in9.1 mm
01:00 PM 74.4°F23.6°C 69.2°F20.7°C 84% 3.5 mph E5.6 kmh E 5.8 mph9.3 kmh 29.77 in1008.1 mb - 0.00 in0.0 mm 0.36 in9.1 mm
01:30 PM 74.4°F23.6°C 69.9°F21.1°C 86% 1.2 mph NE1.9 kmh NE 4.6 mph7.4 kmh 29.77 in1008.1 mb - 0.00 in0.0 mm 0.36 in9.1 mm
02:00 PM 75.3°F24.1°C 70.5°F21.4°C 85% 2.3 mph NE3.7 kmh NE 5.8 mph9.3 kmh 29.75 in1007.5 mb - 0.00 in0.0 mm 0.36 in9.1 mm
02:30 PM 76.8°F24.9°C 70.9°F21.6°C 82% 4.6 mph E7.4 kmh E 5.8 mph9.3 kmh 29.75 in1007.5 mb - 0.00 in0.0 mm 0.36 in9.1 mm
03:00 PM 75.3°F24.1°C 70.8°F21.6°C 86% 1.2 mph NE1.9 kmh NE 3.5 mph5.6 kmh 29.73 in1006.8 mb - 0.00 in0.0 mm 0.36 in9.1 mm
03:30 PM 69.8°F21.0°C 67.0°F19.4°C 91% 6.9 mph SSE11.1 kmh SSE 11.5 mph18.5 kmh 29.76 in1007.8 mb - 0.65 in16.5 mm 1.01 in25.7 mm
04:00 PM 69.6°F20.9°C 68.7°F20.4°C 97% 1.2 mph ENE1.9 kmh ENE 5.8 mph9.3 kmh 29.77 in1008.1 mb - 0.28 in7.1 mm 1.25 in31.8 mm
04:30 PM 70.2°F21.2°C 69.6°F20.9°C 98% 1.2 mph NE1.9 kmh NE 3.5 mph5.6 kmh 29.75 in1007.5 mb - 0.02 in0.5 mm 1.27 in32.3 mm
05:00 PM 72.0°F22.2°C 71.4°F21.9°C 98% Calm Calm 1.2 mph1.9 kmh 29.74 in1007.1 mb - 0.00 in0.0 mm 1.27 in32.3 mm
05:30 PM 72.0°F22.2°C 71.4°F21.9°C 98% Calm Calm 1.2 mph1.9 kmh 29.75 in1007.5 mb - 0.00 in0.0 mm 1.27 in32.3 mm
06:00 PM 72.5°F22.5°C 71.9°F22.2°C 98% 1.2 mph W1.9 kmh W 1.2 mph1.9 kmh 29.75 in1007.5 mb - 0.00 in0.0 mm 1.27 in32.3 mm
06:30 PM 72.3°F22.4°C 71.7°F22.1°C 98% 2.3 mph NNE3.7 kmh NNE 3.5 mph5.6 kmh 29.76 in1007.8 mb - 0.00 in0.0 mm 1.27 in32.3 mm
07:00 PM 72.1°F22.3°C 71.5°F21.9°C 98% 2.3 mph NNE3.7 kmh NNE 2.3 mph3.7 kmh 29.77 in1008.1 mb - 0.02 in0.5 mm 1.29 in32.8 mm
07:30 PM 72.0°F22.2°C 71.4°F21.9°C 98% 2.3 mph S3.7 kmh S 4.6 mph7.4 kmh 29.80 in1009.1 mb - 0.19 in4.8 mm 1.48 in37.6 mm
08:00 PM 69.9°F21.1°C 69.3°F20.7°C 98% 3.5 mph NE5.6 kmh NE 3.5 mph5.6 kmh 29.77 in1008.1 mb - 0.62 in15.7 mm 2.09 in53.1 mm
08:30 PM 69.4°F20.8°C 69.1°F20.6°C 99% Calm Calm -- 29.79 in1008.8 mb - 0.00 in0.0 mm 2.09 in53.1 mm
09:00 PM 68.9°F20.5°C 68.6°F20.3°C 99% Calm Calm -- 29.80 in1009.1 mb - 0.00 in0.0 mm 2.09 in53.1 mm
09:30 PM 68.8°F20.4°C 68.5°F20.3°C 99% Calm Calm -- 29.80 in1009.1 mb - 0.00 in0.0 mm 2.09 in53.1 mm
10:00 PM 68.4°F20.2°C 68.1°F20.1°C 99% Calm Calm -- 29.81 in1009.5 mb - 0.00 in0.0 mm 2.09 in53.1 mm
10:30 PM 68.8°F20.4°C 68.5°F20.3°C 99% Calm Calm 2.3 mph3.7 kmh 29.81 in1009.5 mb - 0.00 in0.0 mm 2.09 in53.1 mm
11:00 PM 69.3°F20.7°C 69.0°F20.6°C 99% Calm Calm 4.6 mph7.4 kmh 29.81 in1009.5 mb - 0.02 in0.5 mm 2.11 in53.6 mm
11:30 PM 70.3°F21.3°C 70.0°F21.1°C 99% 2.3 mph NE3.7 kmh NE 3.5 mph5.6 kmh 29.81 in1009.5 mb - 0.01 in0.3 mm 2.12 in53.8 mm